createdAt,value
2022-09-28T00:01:21.175Z,0.77
2022-09-28T00:03:51.412Z,0.60
2022-09-28T00:06:21.815Z,0.60
2022-09-28T00:08:52.229Z,0.95
2022-09-28T00:11:21.166Z,0.80
2022-09-28T00:13:53.736Z,0.52
2022-09-28T00:16:25.725Z,0.50
2022-09-28T00:18:54.586Z,0.70
2022-09-28T00:21:24.450Z,0.70
2022-09-28T00:24:12.293Z,0.57
2022-09-28T00:26:42.408Z,0.63
2022-09-28T00:29:18.445Z,0.70
2022-09-28T00:31:47.257Z,0.75
2022-09-28T00:34:16.141Z,0.68
2022-09-28T00:36:45.774Z,0.98
2022-09-28T00:39:15.596Z,0.60
2022-09-28T00:41:44.647Z,0.90
2022-09-28T00:44:33.456Z,0.77
2022-09-28T00:47:37.394Z,0.90
2022-09-28T00:50:22.050Z,0.70
2022-09-28T00:53:04.151Z,0.50
2022-09-28T00:55:55.583Z,0.98
2022-09-28T00:58:29.908Z,1.08
2022-09-28T01:00:59.177Z,0.60
2022-09-28T01:03:27.817Z,0.60
2022-09-28T01:05:58.720Z,0.45
2022-09-28T01:08:29.295Z,1.02
2022-09-28T01:10:59.326Z,0.52
2022-09-28T01:13:31.529Z,0.80
2022-09-28T01:16:08.047Z,0.68
2022-09-28T01:19:10.584Z,1.70
2022-09-28T01:21:53.315Z,0.75
2022-09-28T01:24:42.102Z,0.70
2022-09-28T01:27:18.458Z,0.68
2022-09-28T01:30:05.578Z,0.60
2022-09-28T01:32:43.615Z,1.17
2022-09-28T01:35:33.535Z,1.00
2022-09-28T01:38:10.458Z,1.00
2022-09-28T01:40:38.711Z,1.10
2022-09-28T01:43:25.575Z,1.13
2022-09-28T01:46:06.463Z,0.80
2022-09-28T01:48:46.597Z,0.70
2022-09-28T01:51:25.266Z,0.70
2022-09-28T01:53:57.562Z,0.80
2022-09-28T01:56:34.151Z,0.73
2022-09-28T01:59:20.576Z,1.25
2022-09-28T02:01:50.077Z,0.80
2022-09-28T02:04:40.500Z,0.70
2022-09-28T02:07:20.326Z,0.98
2022-09-28T02:09:59.419Z,1.20
2022-09-28T02:13:02.872Z,0.60
2022-09-28T02:15:53.430Z,0.65
2022-09-28T02:18:21.115Z,0.88
2022-09-28T02:20:57.345Z,1.00
2022-09-28T02:23:29.134Z,1.13
2022-09-28T02:26:12.024Z,1.20
2022-09-28T02:28:39.680Z,1.10
2022-09-28T02:31:07.795Z,1.00
2022-09-28T02:33:43.203Z,0.70
2022-09-28T02:36:11.476Z,0.70
2022-09-28T02:38:39.554Z,0.70
2022-09-28T02:41:42.802Z,0.70
2022-09-28T02:44:43.431Z,0.70
2022-09-28T02:47:16.984Z,0.70
2022-09-28T02:50:18.912Z,1.10
2022-09-28T02:53:07.617Z,0.98
2022-09-28T02:55:38.226Z,0.80
2022-09-28T02:58:27.801Z,0.98
2022-09-28T03:01:30.588Z,0.80
2022-09-28T03:04:21.657Z,0.93
2022-09-28T03:06:56.095Z,0.88
2022-09-28T03:09:32.581Z,0.75
2022-09-28T03:12:07.637Z,0.60
2022-09-28T03:14:35.292Z,0.88
2022-09-28T03:17:02.808Z,1.05
2022-09-28T03:19:34.883Z,0.70
2022-09-28T03:22:02.569Z,0.90
2022-09-28T03:24:30.021Z,0.68
2022-09-28T03:26:57.570Z,0.60
2022-09-28T03:29:25.124Z,1.23
2022-09-28T03:31:58.783Z,0.73
2022-09-28T03:34:26.321Z,0.90
2022-09-28T03:36:53.763Z,1.05
2022-09-28T03:39:21.248Z,1.15
2022-09-28T03:41:48.725Z,0.73
2022-09-28T03:44:18.206Z,0.70
2022-09-28T03:46:47.071Z,1.23
2022-09-28T03:49:14.690Z,0.90
2022-09-28T03:51:42.238Z,0.80
2022-09-28T03:54:09.792Z,0.90
2022-09-28T03:56:37.289Z,0.60
2022-09-28T03:59:05.207Z,0.80
2022-09-28T04:01:33.021Z,1.20
2022-09-28T04:04:00.818Z,1.50
2022-09-28T04:06:28.570Z,0.68
2022-09-28T04:08:56.741Z,0.80
2022-09-28T04:11:24.332Z,0.85
2022-09-28T04:13:51.980Z,1.08
2022-09-28T04:16:19.724Z,0.93
2022-09-28T04:19:05.165Z,0.88
2022-09-28T04:24:20.398Z,1.10
2022-09-28T04:26:48.569Z,1.40
2022-09-28T04:29:17.268Z,1.00
2022-09-28T04:31:51.170Z,1.20
2022-09-28T04:34:22.121Z,0.88
2022-09-28T04:36:50.545Z,0.80
2022-09-28T04:39:19.530Z,0.80
2022-09-28T04:41:53.176Z,1.03
2022-09-28T04:44:20.690Z,0.80
2022-09-28T04:46:50.052Z,1.05
2022-09-28T04:49:29.612Z,0.85
2022-09-28T04:52:18.679Z,1.20
2022-09-28T04:54:49.278Z,0.80
2022-09-28T04:57:17.269Z,1.05
2022-09-28T04:59:45.028Z,0.90
2022-09-28T05:02:15.089Z,1.00
2022-09-28T05:05:06.271Z,1.30
2022-09-28T05:08:09.498Z,1.13
2022-09-28T05:10:40.404Z,1.10
2022-09-28T05:13:12.652Z,1.30
2022-09-28T05:15:42.664Z,1.35
2022-09-28T05:18:10.284Z,0.82
2022-09-28T05:20:47.921Z,1.08
2022-09-28T05:23:15.685Z,1.38
2022-09-28T05:25:45.908Z,1.27
2022-09-28T05:28:29.033Z,1.20
2022-09-28T05:31:19.099Z,0.68
2022-09-28T05:34:12.725Z,1.05
2022-09-28T05:36:42.717Z,1.00
2022-09-28T05:39:10.416Z,1.58
2022-09-28T05:41:37.979Z,1.33
2022-09-28T05:44:05.901Z,1.08
2022-09-28T05:46:33.392Z,1.00
2022-09-28T05:49:02.137Z,1.05
2022-09-28T05:51:29.725Z,1.00
2022-09-28T05:53:59.766Z,1.00
2022-09-28T05:56:31.679Z,1.00
2022-09-28T05:58:59.154Z,0.93
2022-09-28T06:01:29.542Z,1.08
2022-09-28T06:03:59.240Z,1.00
2022-09-28T06:06:26.840Z,0.88
2022-09-28T06:08:54.342Z,0.82
2022-09-28T06:11:34.076Z,0.90
2022-09-28T06:14:20.136Z,0.77
2022-09-28T06:16:47.736Z,0.93
2022-09-28T06:19:15.316Z,0.80
2022-09-28T06:22:01.393Z,1.08
2022-09-28T06:24:31.268Z,0.85
2022-09-28T06:26:58.953Z,0.88
2022-09-28T06:29:29.314Z,0.80
2022-09-28T06:31:58.010Z,0.80
2022-09-28T06:34:25.864Z,1.02
2022-09-28T06:36:53.763Z,0.47
2022-09-28T06:39:21.282Z,0.88
2022-09-28T06:41:48.785Z,0.80
2022-09-28T06:44:18.577Z,0.65
2022-09-28T06:47:04.792Z,0.95
2022-09-28T06:49:55.507Z,0.60
2022-09-28T06:52:53.139Z,0.47
2022-09-28T06:55:43.241Z,0.32
2022-09-28T06:58:13.326Z,0.60
2022-09-28T07:00:41.661Z,1.40
2022-09-28T07:03:13.632Z,0.90
2022-09-28T07:05:56.530Z,0.70
2022-09-28T07:09:05.710Z,0.50
2022-09-28T07:12:11.857Z,0.80
2022-09-28T07:14:59.684Z,0.50
2022-09-28T07:17:29.150Z,0.50
2022-09-28T07:20:07.296Z,0.50
2022-09-28T07:22:43.403Z,0.45
2022-09-28T07:25:16.543Z,0.70
2022-09-28T07:27:43.974Z,0.50
2022-09-28T07:30:18.290Z,0.55
2022-09-28T07:33:15.019Z,0.70
2022-09-28T07:36:06.658Z,0.65
2022-09-28T07:38:35.195Z,1.00
2022-09-28T07:41:11.475Z,0.80
2022-09-28T07:43:43.904Z,1.13
2022-09-28T07:46:14.486Z,0.85
2022-09-28T07:48:49.581Z,1.00
2022-09-28T07:51:23.759Z,0.95
2022-09-28T07:54:10.193Z,1.25
2022-09-28T07:56:48.025Z,0.90
2022-09-28T07:59:34.141Z,1.08
2022-09-28T08:02:35.208Z,1.17
2022-09-28T08:05:02.952Z,1.20
2022-09-28T08:07:30.390Z,0.93
2022-09-28T08:10:04.217Z,1.10
2022-09-28T08:12:40.836Z,1.33
2022-09-28T08:15:27.304Z,1.05
2022-09-28T08:18:07.952Z,1.27
2022-09-28T08:20:54.091Z,1.50
2022-09-28T08:23:21.970Z,1.35
2022-09-28T08:25:54.128Z,1.42
2022-09-28T08:28:24.257Z,1.20
2022-09-28T08:30:54.870Z,1.00
2022-09-28T08:33:53.779Z,1.27
2022-09-28T08:36:56.834Z,1.42
2022-09-28T08:39:42.928Z,1.00
2022-09-28T08:42:39.919Z,1.25
2022-09-28T08:45:36.455Z,0.85
2022-09-28T08:48:41.555Z,2.00
2022-09-28T08:51:48.266Z,1.33
2022-09-28T08:54:48.824Z,1.67
2022-09-28T08:57:46.619Z,1.67
2022-09-28T09:00:42.567Z,1.00
2022-09-28T09:03:13.871Z,1.33
2022-09-28T09:05:56.140Z,1.52
2022-09-28T09:09:02.136Z,1.35
2022-09-28T09:11:50.735Z,1.30
2022-09-28T09:14:44.420Z,1.77
2022-09-28T09:17:15.950Z,1.63
2022-09-28T09:20:45.602Z,1.27
2022-09-28T09:23:57.628Z,1.27
2022-09-28T09:29:39.256Z,1.17
2022-09-28T09:32:23.107Z,1.58
2022-09-28T09:34:57.272Z,1.40
2022-09-28T09:37:58.654Z,0.90
2022-09-28T09:44:04.441Z,1.35
2022-09-28T09:47:08.314Z,1.05
2022-09-28T09:50:05.501Z,1.55
2022-09-28T09:52:58.902Z,1.52
2022-09-28T09:55:38.696Z,0.95
2022-09-28T09:58:34.383Z,1.23
2022-09-28T10:01:17.513Z,1.00
2022-09-28T10:04:07.760Z,1.42
2022-09-28T10:06:37.481Z,1.33
2022-09-28T10:09:12.578Z,1.33
2022-09-28T10:11:49.503Z,1.00
2022-09-28T10:14:22.901Z,1.20
2022-09-28T10:16:59.049Z,1.50
2022-09-28T10:19:49.514Z,1.20
2022-09-28T10:22:44.423Z,1.40
2022-09-28T10:25:17.258Z,1.25
2022-09-28T10:27:49.248Z,1.10
2022-09-28T10:30:25.728Z,1.33
2022-09-28T10:32:59.289Z,1.30
2022-09-28T10:35:41.992Z,1.10
2022-09-28T10:38:17.336Z,1.00
2022-09-28T10:41:09.480Z,0.93
2022-09-28T10:44:06.434Z,0.77
2022-09-28T10:47:04.026Z,1.05
2022-09-28T10:49:47.377Z,1.20
2022-09-28T10:52:41.574Z,1.10
2022-09-28T10:55:21.467Z,1.63
2022-09-28T10:57:49.414Z,1.27
2022-09-28T11:00:42.685Z,1.20
2022-09-28T11:03:28.912Z,2.00
2022-09-28T11:06:00.372Z,1.48
2022-09-28T11:08:45.793Z,1.23
2022-09-28T11:11:21.827Z,1.15
2022-09-28T11:14:02.136Z,1.20
2022-09-28T11:16:34.888Z,0.90
2022-09-28T11:19:21.826Z,1.20
2022-09-28T11:21:50.002Z,1.10
2022-09-28T11:24:19.539Z,1.25
2022-09-28T11:26:51.833Z,1.20
2022-09-28T11:32:30.396Z,1.08
2022-09-28T11:35:28.182Z,1.45
2022-09-28T11:38:31.255Z,1.40
2022-09-28T11:41:42.516Z,1.85
2022-09-28T11:44:48.848Z,1.73
2022-09-28T11:47:38.876Z,1.63
2022-09-28T11:50:53.230Z,1.80
2022-09-28T11:53:35.031Z,2.28
2022-09-28T11:56:21.880Z,1.90
2022-09-28T11:59:21.649Z,2.55
2022-09-28T12:02:16.727Z,1.70
2022-09-28T12:04:59.483Z,1.70
2022-09-28T12:07:57.023Z,1.95
2022-09-28T12:10:51.135Z,2.63
2022-09-28T12:13:29.780Z,1.73
2022-09-28T12:16:53.166Z,1.90
2022-09-28T12:19:21.044Z,1.95
2022-09-28T12:22:01.079Z,2.03
2022-09-28T12:24:36.794Z,1.90
2022-09-28T12:27:10.054Z,2.05
2022-09-28T12:29:49.630Z,2.20
2022-09-28T12:33:04.767Z,2.00
2022-09-28T12:36:10.835Z,2.35
2022-09-28T12:39:17.497Z,2.28
2022-09-28T12:41:56.496Z,1.80
2022-09-28T12:44:29.784Z,2.40
2022-09-28T12:46:57.316Z,1.85
2022-09-28T12:52:27.170Z,1.85
2022-09-28T12:58:02.743Z,2.00
2022-09-28T13:01:18.451Z,2.03
2022-09-28T13:04:27.399Z,2.15
2022-09-28T13:07:07.119Z,2.47
2022-09-28T13:09:58.474Z,2.40
2022-09-28T13:12:48.777Z,2.40
2022-09-28T13:15:51.149Z,2.55
2022-09-28T13:18:45.550Z,2.13
2022-09-28T13:21:22.997Z,2.67
2022-09-28T13:24:00.862Z,2.08
2022-09-28T13:26:39.532Z,2.75
2022-09-28T13:29:14.333Z,2.33
2022-09-28T13:31:51.701Z,2.22
2022-09-28T13:34:25.011Z,2.70
2022-09-28T13:37:09.856Z,2.33
2022-09-28T13:39:44.702Z,2.53
2022-09-28T13:42:24.975Z,2.85
2022-09-28T13:45:21.445Z,2.60
2022-09-28T13:47:52.096Z,3.53
2022-09-28T13:50:34.455Z,2.50
2022-09-28T13:53:26.153Z,2.65
2022-09-28T13:56:31.081Z,2.15
2022-09-28T13:59:20.349Z,2.90
2022-09-28T14:02:18.395Z,2.70
2022-09-28T14:05:26.945Z,2.35
2022-09-28T14:08:11.147Z,2.80
2022-09-28T14:10:52.528Z,1.98
2022-09-28T14:13:41.645Z,1.67
2022-09-28T14:16:18.095Z,2.40
2022-09-28T14:18:58.189Z,2.30
2022-09-28T14:21:47.529Z,2.47
2022-09-28T14:24:55.564Z,1.98
2022-09-28T14:28:14.202Z,2.00
2022-09-28T14:30:41.727Z,2.08
2022-09-28T14:33:21.924Z,2.08
2022-09-28T14:35:50.369Z,2.28
2022-09-28T14:38:40.924Z,2.22
2022-09-28T14:41:24.236Z,1.77
2022-09-28T14:44:01.136Z,2.25
2022-09-28T14:46:48.585Z,2.28
2022-09-28T14:49:23.347Z,2.05
2022-09-28T14:51:54.211Z,2.38
2022-09-28T14:54:22.708Z,3.30
2022-09-28T14:56:57.252Z,2.40
2022-09-28T14:59:30.507Z,1.75
2022-09-28T15:02:15.122Z,2.00
2022-09-28T15:04:53.635Z,2.00
2022-09-28T15:07:32.873Z,2.03
2022-09-28T15:10:02.762Z,2.47
2022-09-28T15:12:31.347Z,2.42
2022-09-28T15:15:03.998Z,2.30
2022-09-28T15:17:39.275Z,2.50
2022-09-28T15:20:33.785Z,2.20
2022-09-28T15:23:01.337Z,2.38
2022-09-28T15:25:31.855Z,2.50
2022-09-28T15:28:06.611Z,2.30
2022-09-28T15:30:36.686Z,2.72
2022-09-28T15:33:23.864Z,2.28
2022-09-28T15:35:51.370Z,2.35
2022-09-28T15:38:18.903Z,2.45
2022-09-28T15:40:47.683Z,2.42
2022-09-28T15:43:30.583Z,2.08
2022-09-28T15:46:21.117Z,3.25
2022-09-28T15:48:57.380Z,3.60
2022-09-28T15:51:25.869Z,2.65
2022-09-28T15:54:01.125Z,2.28
2022-09-28T15:56:29.665Z,3.40
2022-09-28T15:59:13.621Z,2.50
2022-09-28T16:01:45.790Z,2.67
2022-09-28T16:04:38.892Z,2.10
2022-09-28T16:07:06.733Z,2.35
2022-09-28T16:09:40.275Z,3.35
2022-09-28T16:12:10.998Z,2.90
2022-09-28T16:14:38.658Z,2.15
2022-09-28T16:17:06.223Z,2.97
2022-09-28T16:19:38.049Z,3.22
2022-09-28T16:22:17.591Z,3.25
2022-09-28T16:24:55.016Z,2.55
2022-09-28T16:27:42.200Z,2.92
2022-09-28T16:30:30.302Z,2.65
2022-09-28T16:33:02.023Z,3.05
2022-09-28T16:35:35.615Z,3.17
2022-09-28T16:38:23.384Z,2.92
2022-09-28T16:40:54.018Z,3.45
2022-09-28T16:43:27.219Z,3.05
2022-09-28T16:45:58.044Z,2.58
2022-09-28T16:48:34.459Z,2.97
2022-09-28T16:51:02.020Z,3.40
2022-09-28T16:53:47.759Z,2.97
2022-09-28T16:56:15.500Z,3.33
2022-09-28T16:58:44.198Z,3.88
2022-09-28T17:01:12.665Z,2.35
2022-09-28T17:03:44.296Z,2.90
2022-09-28T17:06:12.811Z,2.40
2022-09-28T17:08:40.262Z,3.10
2022-09-28T17:11:20.481Z,2.53
2022-09-28T17:13:51.881Z,2.40
2022-09-28T17:16:37.265Z,1.70
2022-09-28T17:19:19.986Z,2.70
2022-09-28T17:21:49.681Z,3.33
2022-09-28T17:24:17.676Z,2.97
2022-09-28T17:26:47.111Z,2.50
2022-09-28T17:29:15.894Z,2.20
2022-09-28T17:31:45.114Z,2.45
2022-09-28T17:34:16.205Z,3.20
2022-09-28T17:36:44.887Z,2.13
2022-09-28T17:39:17.650Z,2.75
2022-09-28T17:41:45.523Z,2.10
2022-09-28T17:44:15.870Z,1.83
2022-09-28T17:46:49.679Z,2.83
2022-09-28T17:49:18.731Z,2.65
2022-09-28T17:51:46.497Z,2.50
2022-09-28T17:54:16.832Z,2.92
2022-09-28T17:56:44.394Z,2.60
2022-09-28T17:59:16.264Z,3.20
2022-09-28T18:01:43.848Z,3.30
2022-09-28T18:04:33.398Z,2.53
2022-09-28T18:07:01.170Z,4.30
2022-09-28T18:09:28.681Z,4.18
2022-09-28T18:12:04.176Z,4.38
2022-09-28T18:14:31.761Z,3.67
2022-09-28T18:16:59.236Z,2.80
2022-09-28T18:19:31.759Z,2.20
2022-09-28T18:21:59.674Z,2.10
2022-09-28T18:24:27.127Z,2.72
2022-09-28T18:26:54.702Z,2.65
2022-09-28T18:29:22.202Z,2.30
2022-09-28T18:31:50.057Z,2.92
2022-09-28T18:34:17.718Z,2.58
2022-09-28T18:36:45.736Z,2.50
2022-09-28T18:39:13.235Z,2.60
2022-09-28T18:41:42.164Z,3.20
2022-09-28T18:44:10.088Z,2.75
2022-09-28T18:46:37.984Z,2.22
2022-09-28T18:49:05.587Z,2.70
2022-09-28T18:51:33.086Z,2.30
2022-09-28T18:54:06.672Z,3.00
2022-09-28T18:56:37.352Z,2.50
2022-09-28T18:59:11.242Z,2.38
2022-09-28T19:01:41.874Z,2.45
2022-09-28T19:04:10.935Z,2.88
2022-09-28T19:06:41.835Z,2.55
2022-09-28T19:09:10.255Z,2.28
2022-09-28T19:11:37.743Z,2.08
2022-09-28T19:14:05.447Z,2.25
2022-09-28T19:16:35.815Z,2.42
2022-09-28T19:19:03.853Z,2.55
2022-09-28T19:21:31.345Z,2.65
2022-09-28T19:24:02.648Z,2.45
2022-09-28T19:26:30.647Z,2.53
2022-09-28T19:28:58.784Z,3.10
2022-09-28T19:31:27.323Z,2.40
2022-09-28T19:33:54.873Z,1.80
2022-09-28T19:36:25.106Z,2.08
2022-09-28T19:38:53.603Z,2.42
2022-09-28T19:41:43.445Z,1.98
2022-09-28T19:44:35.815Z,2.30
2022-09-28T19:47:07.514Z,2.70
2022-09-28T19:49:37.215Z,2.63
2022-09-28T19:52:17.228Z,2.38
2022-09-28T19:54:54.465Z,2.58
2022-09-28T19:57:24.742Z,2.08
2022-09-28T19:59:54.371Z,2.63
2022-09-28T20:02:24.271Z,2.25
2022-09-28T20:04:51.806Z,2.55
2022-09-28T20:07:19.339Z,1.83
2022-09-28T20:09:46.792Z,2.60
2022-09-28T20:12:14.305Z,2.70
2022-09-28T20:14:41.846Z,2.60
2022-09-28T20:17:10.084Z,2.70
2022-09-28T20:19:37.529Z,2.25
2022-09-28T20:22:05.221Z,2.20
2022-09-28T20:24:33.024Z,2.10
2022-09-28T20:27:01.465Z,2.45
2022-09-28T20:29:31.664Z,2.33
2022-09-28T20:31:59.427Z,2.58
2022-09-28T20:34:26.898Z,2.15
2022-09-28T20:36:54.435Z,2.22
2022-09-28T20:39:22.004Z,2.13
2022-09-28T20:41:49.518Z,2.33
2022-09-28T20:44:17.161Z,3.63
2022-09-28T20:46:44.836Z,2.05
2022-09-28T20:49:12.389Z,2.45
2022-09-28T20:51:39.914Z,2.05
2022-09-28T20:54:07.758Z,2.05
2022-09-28T20:56:39.286Z,1.95
2022-09-28T20:59:12.910Z,1.70
2022-09-28T21:01:41.068Z,2.40
2022-09-28T21:04:09.619Z,2.08
2022-09-28T21:06:39.457Z,2.28
2022-09-28T21:09:08.591Z,1.90
2022-09-28T21:11:36.612Z,2.72
2022-09-28T21:14:06.460Z,1.95
2022-09-28T21:16:35.833Z,2.45
2022-09-28T21:19:04.042Z,2.10
2022-09-28T21:21:32.037Z,2.13
2022-09-28T21:23:59.574Z,2.50
2022-09-28T21:26:28.990Z,2.92
2022-09-28T21:29:07.858Z,2.58
2022-09-28T21:31:39.757Z,3.00
2022-09-28T21:34:15.103Z,2.22
2022-09-28T21:36:43.406Z,2.38
2022-09-28T21:39:10.985Z,2.17
2022-09-28T21:41:39.158Z,1.90
2022-09-28T21:44:07.457Z,2.35
2022-09-28T21:46:36.460Z,2.28
2022-09-28T21:49:06.469Z,1.90
2022-09-28T21:51:35.216Z,1.95
2022-09-28T21:54:02.716Z,1.90
2022-09-28T21:56:30.312Z,2.05
2022-09-28T21:58:57.796Z,2.60
2022-09-28T22:01:26.137Z,2.00
2022-09-28T22:03:55.721Z,2.92
2022-09-28T22:06:27.883Z,2.50
2022-09-28T22:08:55.841Z,2.15
2022-09-28T22:11:27.282Z,1.88
2022-09-28T22:13:57.872Z,1.90
2022-09-28T22:16:28.564Z,2.50
2022-09-28T22:18:56.609Z,2.42
2022-09-28T22:21:29.790Z,1.85
2022-09-28T22:24:01.859Z,2.70
2022-09-28T22:26:31.759Z,2.85
2022-09-28T22:29:01.664Z,2.25
2022-09-28T22:31:34.733Z,1.65
2022-09-28T22:34:02.992Z,1.75
2022-09-28T22:36:30.711Z,1.60
2022-09-28T22:38:59.362Z,2.20
2022-09-28T22:41:27.382Z,2.75
2022-09-28T22:43:55.305Z,3.22
2022-09-28T22:46:25.694Z,2.25
2022-09-28T22:48:55.882Z,2.25
2022-09-28T22:51:24.863Z,2.50
2022-09-28T22:53:52.621Z,2.13
2022-09-28T22:56:20.125Z,2.40
2022-09-28T22:58:47.720Z,2.25
2022-09-28T23:01:21.336Z,2.03
2022-09-28T23:03:50.422Z,2.28
2022-09-28T23:06:21.019Z,2.50
2022-09-28T23:08:50.085Z,1.83
2022-09-28T23:11:18.252Z,2.40
2022-09-28T23:13:53.191Z,3.13
2022-09-28T23:16:23.440Z,2.05
2022-09-28T23:18:51.442Z,1.75
2022-09-28T23:21:21.294Z,2.55
2022-09-28T23:23:58.043Z,2.65
2022-09-28T23:26:28.654Z,2.10
2022-09-28T23:28:57.243Z,2.40
2022-09-28T23:31:28.104Z,2.00
2022-09-28T23:34:00.431Z,1.77
2022-09-28T23:36:28.544Z,2.17
2022-09-28T23:38:56.296Z,2.17
2022-09-28T23:41:24.032Z,1.80
2022-09-28T23:43:51.630Z,1.95
2022-09-28T23:46:20.897Z,2.30
2022-09-28T23:48:49.638Z,2.58
2022-09-28T23:51:17.166Z,2.10
2022-09-28T23:53:45.129Z,1.88
2022-09-28T23:56:14.409Z,2.33
2022-09-28T23:58:42.102Z,2.03
